Bootsie B, — WDF9484 — position and weather

sailwx.info

Track history (hours):
 
Tides and Currents Weather Stations Pressure Air Temp Water Temp Dewpoint Dewpoint Depression Visibility Wind Speed Wind Dir Waves Ship Positions

Bootsie B,

Owner: Marquette Transp[ortation Co. LLC, Paducah, KY. More information available from US FCC via Universal Licensing System and Coast Guard Vessel Documentation Center.

Last reported at 2017-Jun-23 15:28 UTC. Time now 2017-Jun-28 12:23 UTC.
Position N 32°27' W 091°05'.

Length 57 m; draft 3.7 m.

Type: Towing. MMSI: 367505630.

Date/timePositionNaut miles runAvg speedWind from/ knotsBaromVisibWave heightAir tempDewpointWater temp
2017-Jun-23 15:28N 32°27' W 091°05'5 8.6
2017-Jun-23 14:54N 32°32' W 091°06'8 8.9
2017-Jun-23 13:58N 32°40' W 091°08'  
2017-Jun-18 08:58N 32°38' W 091°09'3 6.2
2017-Jun-18 08:30N 32°35' W 091°07'3 5.4
2017-Jun-18 08:01N 32°33' W 091°06'3 6.0
2017-Jun-18 07:30N 32°30' W 091°07'3 5.4
2017-Jun-18 07:00N 32°27' W 091°05'3 5.8
2017-Jun-18 06:30N 32°26' W 091°02'3 5.6
2017-Jun-18 06:00N 32°24' W 090°60'3 5.7
2017-Jun-18 05:31N 32°22' W 091°00'2 4.5
2017-Jun-18 05:00N 32°21' W 090°58'2 3.1
2017-Jun-18 04:30N 32°21' W 090°56'2 4.1
2017-Jun-18 04:01N 32°19' W 090°54'3 5.7
2017-Jun-18 03:31N 32°17' W 090°57'3 5.6
2017-Jun-18 03:00N 32°15' W 090°58'3 6.2
2017-Jun-18 02:31N 32°12' W 090°59'3 5.4
2017-Jun-18 02:01N 32°09' W 090°60'3 5.0
2017-Jun-18 01:30N 32°07' W 091°02'3 6.3
2017-Jun-18 01:00N 32°08' W 091°06'5 5.2
2017-Jun-18 00:02N 32°03' W 091°04'0 5.9
2017-Jun-18 00:00N 32°03' W 091°04'  
Track history (hours):
 
Tides and Currents Weather Stations Pressure Air Temp Water Temp Dewpoint Dewpoint Depression Visibility Wind Speed Wind Dir Waves Ship Positions

Bootsie B,

Owner: Marquette Transp[ortation Co. LLC, Paducah, KY. More information available from US FCC via Universal Licensing System and Coast Guard Vessel Documentation Center.

Last reported at 2017-Jun-23 15:28 UTC. Time now 2017-Jun-28 12:23 UTC.
Position N 32°27' W 091°05'.

Length 57 m; draft 3.7 m.

Type: Towing. MMSI: 367505630.

Date/timePositionNaut miles runAvg speedWind from/ knotsBaromVisibWave heightAir tempDewpointWater temp
2017-Jun-23 15:28N 32°27' W 091°05'5 8.6
2017-Jun-23 14:54N 32°32' W 091°06'8 8.9
2017-Jun-23 13:58N 32°40' W 091°08'  
2017-Jun-18 08:58N 32°38' W 091°09'3 6.2
2017-Jun-18 08:30N 32°35' W 091°07'3 5.4
2017-Jun-18 08:01N 32°33' W 091°06'3 6.0
2017-Jun-18 07:30N 32°30' W 091°07'3 5.4
2017-Jun-18 07:00N 32°27' W 091°05'3 5.8
2017-Jun-18 06:30N 32°26' W 091°02'3 5.6
2017-Jun-18 06:00N 32°24' W 090°60'3 5.7
2017-Jun-18 05:31N 32°22' W 091°00'2 4.5
2017-Jun-18 05:00N 32°21' W 090°58'2 3.1
2017-Jun-18 04:30N 32°21' W 090°56'2 4.1
2017-Jun-18 04:01N 32°19' W 090°54'3 5.7
2017-Jun-18 03:31N 32°17' W 090°57'3 5.6
2017-Jun-18 03:00N 32°15' W 090°58'3 6.2
2017-Jun-18 02:31N 32°12' W 090°59'3 5.4
2017-Jun-18 02:01N 32°09' W 090°60'3 5.0
2017-Jun-18 01:30N 32°07' W 091°02'3 6.3
2017-Jun-18 01:00N 32°08' W 091°06'5 5.2
2017-Jun-18 00:02N 32°03' W 091°04'0 5.9
2017-Jun-18 00:00N 32°03' W 091°04'  

Dump ship's entire track history